CheckWX is a tool to help pilots better visualize weather data.  It is not intended as a substitute for an official pre-flight weather briefing.

01:06:11 UTC

D95 METAR
Dupont-Lapeer Airport
Lapeer, Michigan, USA
Current

11 mins ago

KD95 240055Z AUTO 14008G15KT 10SM OVC011 03/M02 A2982 RMK AO2 T00251019
Observed
Feb-24 @ 00:55 UTC
Wind
  • 140° at 8 KTS
  • Gusting to 15 KTS
Visibility
10 SM
Flight Rules
MVFR
Cloud Levels
  • Overcast at 1,100' AGL
Temperature
C / 37°F
Dewpoint
-2°C / 28°F
Humidity
70%
Altimeter
29.82" Hg
Pressure
1009.82 hPa
Previous

30 mins ago

KD95 240036Z AUTO 13006KT 10SM OVC015 03/M02 A2984 RMK AO2 T00251022
Observed
Feb-24 @ 00:36 UTC
Wind
  • 130° at 6 KTS
Visibility
10 SM
Flight Rules
MVFR
Cloud Levels
  • Overcast at 1,500' AGL
Temperature
C / 37°F
Dewpoint
-2°C / 28°F
Humidity
70%
Altimeter
29.84" Hg
Pressure
1010.52 hPa
Previous

51 mins ago

KD95 240015Z AUTO 14008G14KT 10SM OVC017 03/M02 A2986 RMK AO2 T00251025
Observed
Feb-24 @ 00:15 UTC
Wind
  • 140° at 8 KTS
  • Gusting to 14 KTS
Visibility
10 SM
Flight Rules
MVFR
Cloud Levels
  • Overcast at 1,700' AGL
Temperature
C / 37°F
Dewpoint
-3°C / 27°F
Humidity
65%
Altimeter
29.86" Hg
Pressure
1011.22 hPa